createdAt,value
2022-11-24T00:01:21.677Z,1.20
2022-11-24T00:04:01.579Z,0.90
2022-11-24T00:06:31.602Z,0.90
2022-11-24T00:08:59.341Z,0.80
2022-11-24T00:11:30.354Z,0.90
2022-11-24T00:13:59.232Z,1.00
2022-11-24T00:16:32.857Z,1.17
2022-11-24T00:19:05.426Z,0.70
2022-11-24T00:21:33.588Z,0.80
2022-11-24T00:24:01.271Z,0.80
2022-11-24T00:26:32.266Z,0.90
2022-11-24T00:29:03.056Z,1.00
2022-11-24T00:31:34.593Z,0.73
2022-11-24T00:34:06.019Z,0.77
2022-11-24T00:36:35.562Z,0.73
2022-11-24T00:39:06.821Z,0.88
2022-11-24T00:41:34.867Z,0.75
2022-11-24T00:44:02.073Z,0.70
2022-11-24T00:46:29.688Z,0.80
2022-11-24T00:48:57.110Z,0.90
2022-11-24T00:51:28.056Z,1.08
2022-11-24T00:53:56.650Z,0.75
2022-11-24T00:56:25.315Z,0.80
2022-11-24T00:58:52.908Z,0.98
2022-11-24T01:01:24.468Z,0.90
2022-11-24T01:03:52.450Z,0.98
2022-11-24T01:06:23.862Z,0.98
2022-11-24T01:08:52.748Z,0.82
2022-11-24T01:11:51.688Z,0.90
2022-11-24T01:14:19.377Z,0.75
2022-11-24T01:16:46.942Z,0.85
2022-11-24T01:19:14.240Z,1.00
2022-11-24T01:21:41.343Z,0.90
2022-11-24T01:24:09.494Z,0.80
2022-11-24T01:26:36.691Z,0.80
2022-11-24T01:29:03.922Z,0.90
2022-11-24T01:31:31.194Z,0.98
2022-11-24T01:33:58.416Z,0.70
2022-11-24T01:36:25.584Z,0.80
2022-11-24T01:38:52.752Z,1.02
2022-11-24T01:41:23.771Z,0.85
2022-11-24T01:43:53.314Z,0.90
2022-11-24T01:46:30.207Z,0.77
2022-11-24T01:49:12.147Z,0.85
2022-11-24T01:54:26.833Z,0.70
2022-11-24T01:57:00.730Z,0.80
2022-11-24T01:59:28.565Z,0.77
2022-11-24T02:01:57.775Z,1.00
2022-11-24T02:04:30.153Z,1.10
2022-11-24T02:07:00.537Z,0.90
2022-11-24T02:09:45.848Z,0.80
2022-11-24T02:12:13.138Z,0.90
2022-11-24T02:14:42.283Z,1.05
2022-11-24T02:17:09.553Z,1.10
2022-11-24T02:19:56.209Z,1.17
2022-11-24T02:22:50.772Z,1.20
2022-11-24T02:25:20.788Z,1.10
2022-11-24T02:27:52.354Z,0.98
2022-11-24T02:30:21.524Z,1.00
2022-11-24T02:32:48.782Z,1.20
2022-11-24T02:35:16.495Z,1.20
2022-11-24T02:37:43.797Z,1.27
2022-11-24T02:40:11.635Z,1.35
2022-11-24T02:42:44.079Z,1.20
2022-11-24T02:45:14.858Z,1.73
2022-11-24T02:47:42.381Z,1.47
2022-11-24T02:50:09.694Z,1.90
2022-11-24T02:52:36.906Z,1.70
2022-11-24T02:55:04.941Z,1.40
2022-11-24T02:57:32.560Z,1.65
2022-11-24T02:59:59.560Z,1.70
2022-11-24T03:02:27.110Z,1.70
2022-11-24T03:04:54.244Z,1.70
2022-11-24T03:07:21.264Z,1.70
2022-11-24T03:09:48.572Z,1.45
2022-11-24T03:12:15.637Z,1.90
2022-11-24T03:14:42.785Z,1.60
2022-11-24T03:17:10.027Z,1.40
2022-11-24T03:19:37.086Z,1.45
2022-11-24T03:22:04.338Z,1.70
2022-11-24T03:24:31.576Z,1.52
2022-11-24T03:26:58.965Z,1.38
2022-11-24T03:29:26.187Z,1.50
2022-11-24T03:31:53.262Z,1.42
2022-11-24T03:34:20.381Z,1.30
2022-11-24T03:36:47.580Z,1.60
2022-11-24T03:39:14.644Z,1.40
2022-11-24T03:41:41.827Z,1.30
2022-11-24T03:44:08.843Z,1.60
2022-11-24T03:46:36.097Z,1.45
2022-11-24T03:49:03.512Z,1.30
2022-11-24T03:51:30.669Z,1.20
2022-11-24T03:53:57.703Z,1.48
2022-11-24T03:56:25.231Z,1.50
2022-11-24T03:58:52.448Z,1.42
2022-11-24T04:01:19.712Z,1.40
2022-11-24T04:03:46.875Z,1.25
2022-11-24T04:06:13.941Z,1.10
2022-11-24T04:08:41.081Z,1.30
2022-11-24T04:11:08.335Z,1.20
2022-11-24T04:13:35.525Z,1.02
2022-11-24T04:16:06.330Z,1.20
2022-11-24T04:18:33.593Z,1.37
2022-11-24T04:21:00.672Z,1.02
2022-11-24T04:23:28.678Z,1.10
2022-11-24T04:25:55.763Z,1.20
2022-11-24T04:28:22.938Z,1.10
2022-11-24T04:30:50.063Z,1.00
2022-11-24T04:33:17.246Z,1.10
2022-11-24T04:35:44.280Z,0.90
2022-11-24T04:38:11.341Z,0.93
2022-11-24T04:40:38.629Z,1.00
2022-11-24T04:43:05.960Z,0.90
2022-11-24T04:45:33.124Z,1.20
2022-11-24T04:48:00.360Z,1.10
2022-11-24T04:50:27.564Z,0.90
2022-11-24T04:52:54.821Z,1.73
2022-11-24T04:55:21.959Z,2.15
2022-11-24T04:57:49.086Z,1.77
2022-11-24T05:00:16.823Z,1.38
2022-11-24T05:02:44.055Z,1.23
2022-11-24T05:05:11.128Z,0.90
2022-11-24T05:07:38.498Z,0.73
2022-11-24T05:10:24.729Z,0.70
2022-11-24T05:12:59.589Z,0.70
2022-11-24T05:15:27.545Z,0.60
2022-11-24T05:17:55.265Z,0.60
2022-11-24T05:20:22.439Z,0.77
2022-11-24T05:22:49.876Z,0.75
2022-11-24T05:25:17.634Z,0.50
2022-11-24T05:27:44.679Z,0.60
2022-11-24T05:30:12.449Z,0.68
2022-11-24T05:32:39.722Z,0.80
2022-11-24T05:35:09.809Z,0.50
2022-11-24T05:37:38.106Z,0.43
2022-11-24T05:40:07.004Z,0.68
2022-11-24T05:42:47.224Z,0.40
2022-11-24T05:45:21.234Z,0.80
2022-11-24T05:47:50.763Z,0.90
2022-11-24T05:50:20.771Z,0.80
2022-11-24T05:52:48.981Z,0.68
2022-11-24T05:55:17.173Z,0.82
2022-11-24T05:57:44.236Z,0.63
2022-11-24T06:00:12.172Z,1.58
2022-11-24T06:02:39.952Z,1.00
2022-11-24T06:05:07.848Z,0.80
2022-11-24T06:07:35.153Z,0.73
2022-11-24T06:10:02.203Z,0.70
2022-11-24T06:12:29.377Z,0.52
2022-11-24T06:14:56.381Z,0.70
2022-11-24T06:17:23.578Z,0.47
2022-11-24T06:19:51.814Z,0.60
2022-11-24T06:22:19.473Z,0.60
2022-11-24T06:24:47.306Z,0.55
2022-11-24T06:27:14.909Z,0.50
2022-11-24T06:29:42.165Z,0.70
2022-11-24T06:32:09.989Z,0.57
2022-11-24T06:34:37.209Z,0.60
2022-11-24T06:37:04.564Z,0.90
2022-11-24T06:39:31.732Z,0.55
2022-11-24T06:41:59.099Z,0.63
2022-11-24T06:44:26.373Z,0.50
2022-11-24T06:46:53.650Z,0.47
2022-11-24T06:49:20.757Z,0.70
2022-11-24T06:51:48.017Z,0.70
2022-11-24T06:54:18.647Z,0.60
2022-11-24T06:56:45.768Z,0.40
2022-11-24T06:59:21.123Z,0.40
2022-11-24T07:01:48.357Z,0.57
2022-11-24T07:04:16.073Z,0.52
2022-11-24T07:06:44.184Z,0.55
2022-11-24T07:09:13.666Z,0.57
2022-11-24T07:11:41.760Z,0.50
2022-11-24T07:14:09.868Z,0.60
2022-11-24T07:16:37.628Z,0.63
2022-11-24T07:19:04.876Z,0.40
2022-11-24T07:21:32.222Z,0.50
2022-11-24T07:23:59.340Z,0.45
2022-11-24T07:26:26.841Z,0.50
2022-11-24T07:28:54.117Z,0.40
2022-11-24T07:31:26.284Z,0.40
2022-11-24T07:33:55.728Z,0.45
2022-11-24T07:36:23.890Z,0.50
2022-11-24T07:38:51.559Z,0.43
2022-11-24T07:41:21.275Z,0.60
2022-11-24T07:43:49.238Z,0.60
2022-11-24T07:46:19.172Z,0.60
2022-11-24T07:48:47.497Z,0.50
2022-11-24T07:51:15.651Z,0.57
2022-11-24T07:53:42.967Z,0.50
2022-11-24T07:56:10.351Z,0.45
2022-11-24T07:58:38.392Z,0.60
2022-11-24T08:01:17.383Z,0.30
2022-11-24T08:03:46.210Z,0.40
2022-11-24T08:06:38.608Z,0.57
2022-11-24T08:09:01.993Z,0.60
2022-11-24T08:11:31.646Z,0.50
2022-11-24T08:13:58.941Z,0.50
2022-11-24T08:16:26.051Z,0.40
2022-11-24T08:18:57.622Z,0.47
2022-11-24T08:21:28.254Z,0.57
2022-11-24T08:23:58.986Z,0.40
2022-11-24T08:26:26.941Z,0.60
2022-11-24T08:28:59.185Z,0.50
2022-11-24T08:31:33.805Z,0.68
2022-11-24T08:34:03.880Z,0.35
2022-11-24T08:36:31.916Z,0.55
2022-11-24T08:39:00.980Z,0.60
2022-11-24T08:41:29.156Z,0.40
2022-11-24T08:43:56.303Z,0.40
2022-11-24T08:46:23.944Z,0.60
2022-11-24T08:48:54.624Z,0.57
2022-11-24T08:51:26.039Z,0.55
2022-11-24T08:53:58.843Z,0.50
2022-11-24T08:56:28.815Z,0.45
2022-11-24T08:58:56.864Z,0.70
2022-11-24T09:01:24.944Z,0.60
2022-11-24T09:03:52.851Z,0.80
2022-11-24T09:06:27.528Z,0.85
2022-11-24T09:08:55.869Z,0.70
2022-11-24T09:11:24.845Z,0.85
2022-11-24T09:13:53.725Z,0.90
2022-11-24T09:16:27.730Z,0.90
2022-11-24T09:19:03.997Z,0.82
2022-11-24T09:21:34.510Z,0.70
2022-11-24T09:24:01.867Z,0.80
2022-11-24T09:26:32.322Z,1.02
2022-11-24T09:29:02.124Z,0.63
2022-11-24T09:31:35.254Z,0.75
2022-11-24T09:34:14.805Z,0.75
2022-11-24T09:36:43.024Z,0.90
2022-11-24T09:39:11.801Z,0.60
2022-11-24T09:42:01.973Z,0.90
2022-11-24T09:44:46.237Z,0.80
2022-11-24T09:47:44.401Z,0.90
2022-11-24T09:50:22.085Z,0.57
2022-11-24T09:53:19.188Z,0.70
2022-11-24T09:55:51.260Z,0.65
2022-11-24T09:58:42.660Z,1.15
2022-11-24T10:01:19.574Z,0.60
2022-11-24T10:03:52.369Z,0.65
2022-11-24T10:06:38.417Z,0.73
2022-11-24T10:09:33.012Z,0.68
2022-11-24T10:12:22.899Z,0.73
2022-11-24T10:15:14.976Z,0.90
2022-11-24T10:18:16.520Z,0.80
2022-11-24T10:21:02.551Z,0.85
2022-11-24T10:24:15.773Z,0.60
2022-11-24T10:26:57.955Z,0.93
2022-11-24T10:29:39.247Z,0.70
2022-11-24T10:32:18.213Z,0.80
2022-11-24T10:34:52.523Z,0.80
2022-11-24T10:37:46.352Z,0.60
2022-11-24T10:40:55.455Z,0.70
2022-11-24T10:43:14.783Z,0.85
2022-11-24T10:45:42.003Z,1.00
2022-11-24T10:48:26.650Z,0.88
2022-11-24T10:51:01.453Z,1.05
2022-11-24T10:53:35.006Z,0.73
2022-11-24T10:56:05.842Z,0.88
2022-11-24T10:58:38.493Z,0.63
2022-11-24T11:01:15.014Z,0.88
2022-11-24T11:03:58.002Z,1.00
2022-11-24T11:06:28.456Z,1.08
2022-11-24T11:09:07.743Z,0.70
2022-11-24T11:11:38.956Z,0.77
2022-11-24T11:14:10.620Z,0.90
2022-11-24T11:16:46.377Z,1.00
2022-11-24T11:19:49.114Z,0.88
2022-11-24T11:22:32.574Z,0.90
2022-11-24T11:25:36.385Z,0.90
2022-11-24T11:28:29.752Z,0.77
2022-11-24T11:31:22.576Z,0.90
2022-11-24T11:34:35.559Z,0.82
2022-11-24T11:37:04.947Z,0.82
2022-11-24T11:39:37.296Z,0.90
2022-11-24T11:45:45.559Z,0.95
2022-11-24T11:48:40.676Z,0.77
2022-11-24T11:51:54.085Z,0.80
2022-11-24T11:54:54.930Z,0.88
2022-11-24T11:57:33.489Z,0.80
2022-11-24T12:00:12.668Z,0.82
2022-11-24T12:03:14.281Z,0.77
2022-11-24T12:06:07.783Z,0.82
2022-11-24T12:09:20.719Z,0.93
2022-11-24T12:11:48.209Z,1.05
2022-11-24T12:14:32.973Z,1.58
2022-11-24T12:17:34.353Z,0.90
2022-11-24T12:20:20.986Z,0.90
2022-11-24T12:23:29.876Z,0.60
2022-11-24T12:26:40.617Z,0.95
2022-11-24T12:29:19.559Z,0.75
2022-11-24T12:32:43.587Z,0.80
2022-11-24T12:35:49.179Z,0.60
2022-11-24T12:38:50.726Z,0.50
2022-11-24T12:41:59.727Z,0.77
2022-11-24T12:45:08.930Z,0.60
2022-11-24T12:48:13.401Z,8.27
2022-11-24T12:50:43.615Z,3.17
2022-11-24T12:53:23.659Z,1.80
2022-11-24T12:55:51.006Z,1.30
2022-11-24T12:58:42.097Z,0.60
2022-11-24T13:01:18.815Z,0.40
2022-11-24T13:04:10.892Z,7.93
2022-11-24T13:07:11.580Z,22.50
2022-11-24T13:10:17.348Z,8.70
2022-11-24T13:13:09.842Z,10.13
2022-11-24T13:19:01.491Z,6.45
2022-11-24T13:21:29.456Z,2.22
2022-11-24T13:24:05.895Z,2.35
2022-11-24T13:26:41.709Z,1.00
2022-11-24T13:29:30.376Z,0.68
2022-11-24T13:32:06.377Z,0.50
2022-11-24T13:34:39.551Z,0.50
2022-11-24T13:37:28.928Z,0.70
2022-11-24T13:40:23.181Z,0.38
2022-11-24T13:42:56.536Z,0.40
2022-11-24T13:45:42.143Z,0.25
2022-11-24T13:48:22.671Z,0.50
2022-11-24T13:51:00.697Z,0.30
2022-11-24T13:53:42.873Z,0.40
2022-11-24T13:56:13.034Z,0.50
2022-11-24T13:58:45.180Z,0.40
2022-11-24T14:01:28.756Z,0.50
2022-11-24T14:04:34.031Z,0.50
2022-11-24T14:07:09.645Z,0.40
2022-11-24T14:09:47.776Z,0.60
2022-11-24T14:12:21.421Z,0.40
2022-11-24T14:15:23.576Z,0.70
2022-11-24T14:17:50.772Z,0.65
2022-11-24T14:20:25.653Z,0.50
2022-11-24T14:22:53.936Z,0.40
2022-11-24T14:25:30.254Z,0.60
2022-11-24T14:27:58.033Z,0.30
2022-11-24T14:30:28.770Z,0.50
2022-11-24T14:33:02.805Z,0.52
2022-11-24T14:35:32.349Z,9.05
2022-11-24T14:38:05.643Z,7.80
2022-11-24T14:40:51.794Z,3.10
2022-11-24T14:43:32.237Z,1.95
2022-11-24T14:46:17.810Z,1.27
2022-11-24T14:48:53.502Z,0.68
2022-11-24T14:51:28.669Z,0.60
2022-11-24T14:54:03.548Z,0.70
2022-11-24T14:56:37.825Z,0.70
2022-11-24T14:59:22.002Z,0.73
2022-11-24T15:01:49.275Z,0.98
2022-11-24T15:07:29.134Z,0.90
2022-11-24T15:10:00.374Z,0.60
2022-11-24T15:12:40.765Z,0.50
2022-11-24T15:15:14.020Z,1.08
2022-11-24T15:17:52.726Z,0.70
2022-11-24T15:20:41.792Z,0.43
2022-11-24T15:23:30.143Z,0.47
2022-11-24T15:26:03.277Z,0.30
2022-11-24T15:28:32.369Z,0.40
2022-11-24T15:31:05.594Z,0.90
2022-11-24T15:33:33.403Z,0.60
2022-11-24T15:36:00.757Z,1.02
2022-11-24T15:38:28.196Z,1.10
2022-11-24T15:40:58.795Z,0.88
2022-11-24T15:43:39.604Z,0.70
2022-11-24T15:46:08.327Z,0.80
2022-11-24T15:48:35.832Z,0.70
2022-11-24T15:51:06.219Z,0.90
2022-11-24T15:53:57.185Z,0.90
2022-11-24T15:56:36.855Z,0.95
2022-11-24T15:59:04.688Z,0.95
2022-11-24T16:01:34.391Z,0.90
2022-11-24T16:04:02.602Z,0.70
2022-11-24T16:06:30.208Z,0.60
2022-11-24T16:08:58.269Z,1.10
2022-11-24T16:11:25.789Z,0.65
2022-11-24T16:13:54.223Z,0.70
2022-11-24T16:16:23.442Z,0.70
2022-11-24T16:18:50.770Z,1.00
2022-11-24T16:21:18.040Z,1.20
2022-11-24T16:23:45.809Z,1.00
2022-11-24T16:26:13.052Z,0.90
2022-11-24T16:28:40.759Z,0.80
2022-11-24T16:31:08.033Z,0.85
2022-11-24T16:33:35.225Z,6.55
2022-11-24T16:36:02.256Z,16.10
2022-11-24T16:38:29.505Z,7.65
2022-11-24T16:40:57.017Z,8.40
2022-11-24T16:43:24.831Z,7.47
2022-11-24T16:46:19.159Z,4.93
2022-11-24T16:48:49.689Z,2.97
2022-11-24T16:51:18.156Z,3.97
2022-11-24T16:53:45.425Z,2.40
2022-11-24T16:56:14.829Z,2.30
2022-11-24T16:58:42.390Z,1.60
2022-11-24T17:01:12.629Z,1.40
2022-11-24T17:03:40.452Z,1.23
2022-11-24T17:06:11.941Z,1.17
2022-11-24T17:08:40.793Z,1.00
2022-11-24T17:11:12.652Z,1.27
2022-11-24T17:16:12.918Z,0.90
2022-11-24T17:18:40.773Z,0.75
2022-11-24T17:21:13.956Z,0.60
2022-11-24T17:23:41.611Z,0.88
2022-11-24T17:26:13.158Z,1.00
2022-11-24T17:28:41.109Z,0.85
2022-11-24T17:31:25.760Z,0.70
2022-11-24T17:33:58.943Z,1.02
2022-11-24T17:36:27.591Z,0.90
2022-11-24T17:38:54.933Z,0.80
2022-11-24T17:41:23.367Z,1.75
2022-11-24T17:43:56.682Z,1.92
2022-11-24T17:46:25.275Z,2.13
2022-11-24T17:48:52.871Z,1.95
2022-11-24T17:51:22.985Z,1.52
2022-11-24T17:53:52.350Z,1.50
2022-11-24T17:56:25.699Z,0.90
2022-11-24T17:58:58.165Z,1.10
2022-11-24T18:01:28.485Z,1.13
2022-11-24T18:03:55.971Z,0.95
2022-11-24T18:06:26.106Z,1.38
2022-11-24T18:08:54.381Z,24.02
2022-11-24T18:11:31.809Z,22.95
2022-11-24T18:14:03.285Z,11.90
2022-11-24T18:16:33.442Z,8.18
2022-11-24T18:19:10.885Z,4.97
2022-11-24T18:21:43.757Z,3.25
2022-11-24T18:24:12.591Z,2.25
2022-11-24T18:26:41.881Z,2.17
2022-11-24T18:29:10.082Z,2.47
2022-11-24T18:31:37.837Z,9.68
2022-11-24T18:34:06.544Z,11.32
2022-11-24T18:36:34.849Z,12.82
2022-11-24T18:39:04.579Z,12.38
2022-11-24T18:41:32.097Z,13.43
2022-11-24T18:44:07.892Z,13.13
2022-11-24T18:46:36.149Z,12.52
2022-11-24T18:49:03.301Z,10.68
2022-11-24T18:51:30.614Z,13.68
2022-11-24T18:54:02.191Z,12.88
2022-11-24T18:56:29.549Z,36.17
2022-11-24T18:58:57.364Z,47.47
2022-11-24T19:01:29.395Z,43.80
2022-11-24T19:03:59.458Z,37.65
2022-11-24T19:06:34.072Z,27.27
2022-11-24T19:09:09.113Z,21.80
2022-11-24T19:11:40.401Z,16.17
2022-11-24T19:14:11.058Z,12.55
2022-11-24T19:16:38.434Z,10.02
2022-11-24T19:19:05.775Z,7.72
2022-11-24T19:21:37.133Z,5.65
2022-11-24T19:24:06.088Z,3.83
2022-11-24T19:26:37.267Z,5.30
2022-11-24T19:29:05.616Z,3.70
2022-11-24T19:31:34.061Z,10.55
2022-11-24T19:34:03.074Z,13.55
2022-11-24T19:36:30.611Z,12.77
2022-11-24T19:38:58.923Z,12.05
2022-11-24T19:41:29.948Z,10.43
2022-11-24T19:43:58.724Z,8.82
2022-11-24T19:46:29.543Z,7.72
2022-11-24T19:49:02.554Z,7.50
2022-11-24T19:51:33.408Z,8.27
2022-11-24T19:54:01.622Z,6.13
2022-11-24T19:56:32.130Z,4.18
2022-11-24T19:58:59.345Z,3.50
2022-11-24T20:01:33.733Z,2.78
2022-11-24T20:04:12.753Z,2.15
2022-11-24T20:06:43.849Z,1.55
2022-11-24T20:09:15.163Z,1.70
2022-11-24T20:11:42.768Z,1.30
2022-11-24T20:14:15.540Z,1.75
2022-11-24T20:16:42.664Z,1.42
2022-11-24T20:19:15.345Z,1.50
2022-11-24T20:21:47.924Z,1.60
2022-11-24T20:24:20.146Z,1.70
2022-11-24T20:26:56.465Z,1.75
2022-11-24T20:29:24.037Z,1.80
2022-11-24T20:31:56.409Z,1.70
2022-11-24T20:34:24.591Z,2.20
2022-11-24T20:36:53.093Z,3.00
2022-11-24T20:39:27.930Z,3.63
2022-11-24T20:41:55.899Z,4.50
2022-11-24T20:44:25.924Z,3.95
2022-11-24T20:46:56.801Z,3.13
2022-11-24T20:49:25.131Z,3.10
2022-11-24T20:51:55.111Z,2.30
2022-11-24T20:54:22.940Z,2.20
2022-11-24T20:56:51.256Z,1.67
2022-11-24T20:59:22.772Z,1.48
2022-11-24T21:01:52.027Z,1.77
2022-11-24T21:04:23.634Z,1.35
2022-11-24T21:06:51.167Z,1.60
2022-11-24T21:09:18.855Z,1.17
2022-11-24T21:11:46.664Z,0.95
2022-11-24T21:14:14.588Z,1.10
2022-11-24T21:16:43.588Z,0.90
2022-11-24T21:19:14.147Z,0.70
2022-11-24T21:21:42.918Z,0.80
2022-11-24T21:24:18.953Z,0.90
2022-11-24T21:26:47.965Z,1.10
2022-11-24T21:29:19.245Z,0.70
2022-11-24T21:31:46.455Z,0.70
2022-11-24T21:34:20.637Z,0.65
2022-11-24T21:36:48.079Z,0.70
2022-11-24T21:39:15.749Z,1.70
2022-11-24T21:41:43.301Z,1.63
2022-11-24T21:44:13.559Z,1.35
2022-11-24T21:46:45.940Z,1.20
2022-11-24T21:49:16.592Z,1.30
2022-11-24T21:51:43.911Z,1.20
2022-11-24T21:54:11.029Z,1.13
2022-11-24T21:56:38.237Z,1.60
2022-11-24T21:59:05.450Z,2.13
2022-11-24T22:01:32.451Z,2.90
2022-11-24T22:03:59.764Z,3.20
2022-11-24T22:06:26.879Z,3.55
2022-11-24T22:08:55.336Z,2.97
2022-11-24T22:11:25.481Z,2.78
2022-11-24T22:13:53.325Z,3.35
2022-11-24T22:16:23.273Z,3.10
2022-11-24T22:18:51.282Z,2.92
2022-11-24T22:21:30.593Z,2.47
2022-11-24T22:23:57.754Z,2.45
2022-11-24T22:26:26.627Z,2.65
2022-11-24T22:28:55.172Z,2.40
2022-11-24T22:31:31.551Z,2.10
2022-11-24T22:34:00.819Z,1.63
2022-11-24T22:36:30.534Z,1.45
2022-11-24T22:39:03.779Z,1.27
2022-11-24T22:41:33.920Z,2.40
2022-11-24T22:44:01.039Z,6.57
2022-11-24T22:46:30.798Z,4.78
2022-11-24T22:49:00.543Z,4.45
2022-11-24T22:51:34.662Z,3.83
2022-11-24T22:54:04.648Z,2.90
2022-11-24T22:56:33.714Z,2.38
2022-11-24T22:59:02.451Z,2.05
2022-11-24T23:01:31.345Z,1.58
2022-11-24T23:03:58.494Z,1.20
2022-11-24T23:06:29.318Z,1.00
2022-11-24T23:08:58.836Z,0.80
2022-11-24T23:11:38.714Z,0.82
2022-11-24T23:14:12.246Z,0.93
2022-11-24T23:16:39.623Z,1.13
2022-11-24T23:19:07.261Z,0.98
2022-11-24T23:21:38.394Z,1.15
2022-11-24T23:24:07.367Z,1.00
2022-11-24T23:26:38.167Z,1.08
2022-11-24T23:29:06.684Z,1.00
2022-11-24T23:31:34.015Z,1.30
2022-11-24T23:34:04.761Z,1.20
2022-11-24T23:36:32.938Z,1.80
2022-11-24T23:39:08.754Z,1.67
2022-11-24T23:41:36.097Z,1.70
2022-11-24T23:44:03.424Z,1.70
2022-11-24T23:46:31.379Z,1.80
2022-11-24T23:48:58.853Z,1.23
2022-11-24T23:51:29.497Z,1.33
2022-11-24T23:53:57.610Z,1.43
2022-11-24T23:56:33.366Z,1.75
2022-11-24T23:59:02.044Z,1.90
